Terminal Aerodrome Forecast
Issued by NWS Dodge City, KS

Home | Current Version | Previous Version | Text Only | Print | Product List | Glossary On
Versions: 1 2 3 4 5 6 7 8 9 10 11 12 13 14 15 16 17 18 19 20 21 22 23 24 25 26 27 28 29 30 31 32
000
FTUS43 KDDC 232340
TAFDDC
TAF
KDDC 232340Z 2400/2424 VRB30G40KT P6SM VCTS OVC080CB
     FM240130 12012KT P6SM SCT010
     FM240400 16011KT P6SM SCT010
     FM241600 19015G22KT P6SM SCT100=

USA.gov is the U.S. government's official web portal to all federal, state and local government web resources and services.